Emory, Utah
Current Conditions -  °F | °C
As of 10:48 PM on Saturday 22 Nov 2014 (Local Time) from KHIF Reporting Station
Overcast Overcast  
Wind Chill: 28°   Ceiling: 11000
Heat Index: 36°   Visibility: 10mi
Dew Point: 34°   Wind: 12mph
Humidity: 93%   Direction: 220°SW
Pressure: 29.92"   Gusts: NA
Location:  40.9775°N, 111.442°W
Report Text: KHIF 230548Z AUTO 22010KT 10SM SCT055 OVC110 02/01 A2992 RMK AO2
Loading
Personal Weather Stations






























Interactive Weather Map New forecast layout! Learn more

10-Day Weather Forecast

Advertisements
Track Severe Weather on mobile